createdAt,value
2023-04-01T00:01:57.391Z,10.31
2023-04-01T00:06:01.102Z,10.39
2023-04-01T00:10:07.768Z,10.41
2023-04-01T00:14:10.114Z,10.15
2023-04-01T00:18:12.773Z,10.01
2023-04-01T00:22:14.885Z,10.25
2023-04-01T00:26:21.956Z,10.06
2023-04-01T00:30:24.212Z,10.16
2023-04-01T00:34:26.603Z,10.24
2023-04-01T00:38:29.056Z,10.38
2023-04-01T00:42:31.386Z,10.00
2023-04-01T00:46:33.613Z,9.68
2023-04-01T00:50:36.813Z,9.79
2023-04-01T00:54:40.465Z,9.78
2023-04-01T00:58:47.377Z,9.75
2023-04-01T01:02:52.265Z,9.74
2023-04-01T01:07:00.001Z,9.77
2023-04-01T01:11:03.781Z,9.79
2023-04-01T01:15:26.258Z,9.69
2023-04-01T01:19:48.502Z,9.71
2023-04-01T01:24:10.511Z,9.75
2023-04-01T01:28:46.997Z,9.57
2023-04-01T01:33:08.274Z,9.72
2023-04-01T01:37:15.205Z,9.67
2023-04-01T01:41:19.585Z,9.73
2023-04-01T01:45:25.006Z,9.74
2023-04-01T01:49:28.673Z,9.70
2023-04-01T01:53:30.801Z,9.68
2023-04-01T01:57:36.093Z,9.69
2023-04-01T02:01:45.416Z,9.63
2023-04-01T02:05:52.995Z,9.69
2023-04-01T02:09:55.385Z,9.40
2023-04-01T02:14:06.565Z,9.52
2023-04-01T02:18:09.329Z,9.57
2023-04-01T02:22:16.968Z,9.53
2023-04-01T02:26:19.949Z,9.40
2023-04-01T02:30:22.842Z,9.43
2023-04-01T02:34:26.474Z,9.46
2023-04-01T02:38:28.339Z,9.60
2023-04-01T02:42:30.601Z,9.54
2023-04-01T02:46:32.788Z,9.45
2023-04-01T02:50:35.519Z,9.51
2023-04-01T02:54:37.678Z,9.38
2023-04-01T02:58:39.903Z,9.29
2023-04-01T03:02:42.270Z,9.28
2023-04-01T03:06:44.564Z,9.23
2023-04-01T03:10:46.741Z,9.08
2023-04-01T03:14:48.859Z,8.95
2023-04-01T03:18:53.733Z,8.91
2023-04-01T03:22:56.522Z,8.93
2023-04-01T03:26:58.480Z,9.11
2023-04-01T03:31:00.664Z,9.14
2023-04-01T03:35:05.958Z,8.92
2023-04-01T03:39:08.047Z,9.15
2023-04-01T03:43:17.678Z,9.10
2023-04-01T03:47:20.045Z,9.16
2023-04-01T03:51:22.175Z,9.11
2023-04-01T03:55:24.320Z,9.25
2023-04-01T03:59:26.497Z,9.22
2023-04-01T04:03:29.162Z,9.07
2023-04-01T04:07:31.549Z,9.10
2023-04-01T04:11:38.021Z,9.25
2023-04-01T04:15:40.616Z,9.16
2023-04-01T04:19:43.400Z,9.24
2023-04-01T04:23:46.106Z,9.24
2023-04-01T04:27:50.925Z,9.32
2023-04-01T04:31:53.297Z,9.30
2023-04-01T04:35:57.546Z,9.22
2023-04-01T04:39:59.867Z,9.25
2023-04-01T04:44:02.296Z,9.32
2023-04-01T04:48:04.683Z,9.31
2023-04-01T04:52:07.116Z,9.22
2023-04-01T04:56:09.432Z,9.33
2023-04-01T05:00:19.040Z,9.41
2023-04-01T05:04:37.499Z,9.37
2023-04-01T05:08:43.767Z,9.39
2023-04-01T05:12:45.953Z,9.58
2023-04-01T05:16:52.915Z,9.42
2023-04-01T05:20:56.334Z,9.52
2023-04-01T05:24:58.295Z,9.48
2023-04-01T05:29:00.857Z,9.71
2023-04-01T05:33:03.586Z,9.57
2023-04-01T05:37:05.934Z,9.60
2023-04-01T05:41:08.052Z,9.49
2023-04-01T05:45:16.455Z,9.79
2023-04-01T05:49:37.163Z,9.81
2023-04-01T05:53:40.329Z,9.86
2023-04-01T05:57:42.591Z,9.78
2023-04-01T06:01:44.960Z,9.72
2023-04-01T06:05:47.571Z,9.78
2023-04-01T06:09:50.211Z,9.85
2023-04-01T06:14:00.138Z,10.26
2023-04-01T06:18:29.653Z,10.17
2023-04-01T06:22:44.185Z,10.36
2023-04-01T06:27:13.022Z,10.43
2023-04-01T06:31:33.337Z,10.31
2023-04-01T06:35:53.373Z,10.41
2023-04-01T06:40:04.793Z,10.59
2023-04-01T06:44:17.059Z,10.33
2023-04-01T06:49:02.272Z,10.50
2023-04-01T06:53:35.333Z,10.56
2023-04-01T06:57:59.906Z,10.69
2023-04-01T07:02:11.381Z,10.64
2023-04-01T07:06:33.557Z,10.81
2023-04-01T07:11:06.186Z,11.01
2023-04-01T07:15:34.614Z,10.95
2023-04-01T07:20:12.332Z,10.76
2023-04-01T07:24:31.070Z,10.76
2023-04-01T07:28:42.279Z,11.01
2023-04-01T07:33:10.031Z,10.86
2023-04-01T07:37:23.196Z,10.87
2023-04-01T07:41:34.728Z,10.85
2023-04-01T07:46:12.197Z,10.68
2023-04-01T07:50:39.250Z,10.29
2023-04-01T07:55:07.168Z,10.49
2023-04-01T07:59:25.951Z,10.58
2023-04-01T08:03:56.943Z,10.85
2023-04-01T08:08:17.630Z,11.16
2023-04-01T08:13:08.360Z,11.90
2023-04-01T08:17:41.654Z,11.53
2023-04-01T08:21:53.446Z,11.57
2023-04-01T08:26:11.870Z,11.70
2023-04-01T08:30:24.228Z,11.57
2023-04-01T08:34:31.940Z,11.64
2023-04-01T08:38:56.049Z,11.38
2023-04-01T08:43:23.769Z,11.65
2023-04-01T08:47:40.638Z,12.19
2023-04-01T08:52:16.029Z,12.18
2023-04-01T08:56:32.231Z,11.66
2023-04-01T09:01:26.091Z,11.98
2023-04-01T09:05:43.709Z,12.14
2023-04-01T09:10:12.009Z,11.50
2023-04-01T09:14:38.698Z,11.56
2023-04-01T09:19:38.495Z,11.04
2023-04-01T09:24:01.999Z,11.63
2023-04-01T09:28:20.049Z,11.91
2023-04-01T09:32:53.836Z,11.90
2023-04-01T09:37:22.832Z,12.23
2023-04-01T09:41:30.340Z,11.63
2023-04-01T09:46:05.826Z,11.58
2023-04-01T09:50:46.871Z,11.35
2023-04-01T09:55:18.598Z,11.41
2023-04-01T09:59:48.471Z,10.96
2023-04-01T10:04:41.114Z,10.45
2023-04-01T10:09:08.718Z,10.16
2023-04-01T10:13:31.517Z,10.05
2023-04-01T10:17:42.937Z,10.40
2023-04-01T10:22:03.546Z,10.21
2023-04-01T10:26:41.752Z,10.28
2023-04-01T10:31:27.766Z,10.45
2023-04-01T10:35:49.719Z,10.46
2023-04-01T10:40:19.841Z,10.40
2023-04-01T10:45:07.918Z,10.54
2023-04-01T10:49:36.647Z,10.74
2023-04-01T10:53:50.282Z,10.78
2023-04-01T10:58:01.210Z,11.25
2023-04-01T11:02:24.461Z,11.94
2023-04-01T11:07:08.448Z,12.36
2023-04-01T11:11:35.797Z,12.56
2023-04-01T11:16:10.694Z,12.74
2023-04-01T11:20:34.716Z,12.65
2023-04-01T11:24:47.121Z,12.27
2023-04-01T11:29:15.483Z,11.87
2023-04-01T11:33:27.096Z,11.76
2023-04-01T11:37:45.182Z,12.03
2023-04-01T11:42:20.902Z,12.31
2023-04-01T11:46:58.133Z,12.14
2023-04-01T11:51:18.750Z,12.20
2023-04-01T11:55:28.804Z,12.09
2023-04-01T11:59:54.036Z,12.02
2023-04-01T12:04:30.127Z,12.07
2023-04-01T12:09:09.362Z,12.54
2023-04-01T12:13:26.126Z,12.52
2023-04-01T12:17:40.205Z,12.38
2023-04-01T12:22:23.729Z,12.21
2023-04-01T12:26:40.776Z,11.89
2023-04-01T12:30:57.757Z,12.24
2023-04-01T12:35:33.421Z,12.70
2023-04-01T12:39:54.322Z,12.68
2023-04-01T12:44:36.342Z,12.80
2023-04-01T12:48:54.924Z,12.91
2023-04-01T12:53:08.954Z,13.38
2023-04-01T12:58:04.895Z,13.15
2023-04-01T13:02:14.977Z,13.39
2023-04-01T13:06:35.343Z,13.35
2023-04-01T13:11:06.061Z,13.26
2023-04-01T13:15:34.254Z,13.17
2023-04-01T13:20:05.509Z,13.31
2023-04-01T13:24:39.454Z,13.27
2023-04-01T13:28:45.904Z,13.18
2023-04-01T13:33:07.478Z,12.89
2023-04-01T13:37:47.564Z,12.87
2023-04-01T13:42:15.683Z,12.72
2023-04-01T13:46:36.281Z,12.79
2023-04-01T13:51:16.319Z,12.72
2023-04-01T13:55:56.612Z,12.44
2023-04-01T14:00:17.582Z,11.95
2023-04-01T14:04:45.878Z,11.70
2023-04-01T14:09:11.744Z,11.60
2023-04-01T14:13:42.045Z,11.73
2023-04-01T14:17:47.435Z,11.84
2023-04-01T14:22:01.418Z,11.97
2023-04-01T14:26:22.196Z,12.07
2023-04-01T14:31:03.341Z,11.87
2023-04-01T14:35:20.940Z,11.55
2023-04-01T14:39:44.554Z,11.58
2023-04-01T14:44:26.158Z,11.41
2023-04-01T14:48:31.527Z,11.39
2023-04-01T14:52:37.150Z,11.60
2023-04-01T14:56:40.788Z,11.47
2023-04-01T15:01:13.148Z,11.35
2023-04-01T15:05:38.200Z,10.91
2023-04-01T15:10:20.523Z,10.61
2023-04-01T15:14:51.403Z,10.54
2023-04-01T15:19:31.309Z,10.61
2023-04-01T15:23:51.808Z,10.44
2023-04-01T15:28:12.048Z,10.26
2023-04-01T15:32:51.481Z,9.91
2023-04-01T15:37:21.707Z,9.81
2023-04-01T15:41:50.859Z,9.76
2023-04-01T15:46:37.490Z,9.76
2023-04-01T15:50:56.797Z,9.67
2023-04-01T15:55:05.121Z,9.53
2023-04-01T15:59:25.665Z,9.60
2023-04-01T16:03:47.024Z,9.69
2023-04-01T16:08:14.152Z,9.76
2023-04-01T16:12:24.377Z,9.70
2023-04-01T16:17:00.019Z,9.62
2023-04-01T16:21:23.349Z,9.42
2023-04-01T16:25:43.010Z,9.43
2023-04-01T16:29:48.784Z,9.40
2023-04-01T16:33:58.831Z,9.49
2023-04-01T16:38:10.563Z,9.39
2023-04-01T16:42:25.526Z,9.44
2023-04-01T16:46:47.346Z,9.26
2023-04-01T16:51:16.227Z,9.31
2023-04-01T16:55:21.406Z,9.30
2023-04-01T16:59:37.771Z,9.23
2023-04-01T17:03:46.135Z,9.27
2023-04-01T17:08:09.115Z,9.14
2023-04-01T17:12:41.030Z,9.14
2023-04-01T17:17:08.798Z,9.26
2023-04-01T17:21:18.931Z,9.25
2023-04-01T17:25:46.895Z,9.38
2023-04-01T17:30:19.303Z,9.25
2023-04-01T17:34:45.986Z,9.26
2023-04-01T17:39:19.139Z,9.37
2023-04-01T17:43:39.821Z,9.41
2023-04-01T17:47:53.699Z,9.32
2023-04-01T17:52:04.605Z,9.37
2023-04-01T17:56:16.563Z,9.36
2023-04-01T18:00:50.695Z,9.28
2023-04-01T18:05:26.212Z,9.27
2023-04-01T18:09:49.626Z,9.23
2023-04-01T18:14:29.049Z,9.18
2023-04-01T18:18:43.159Z,9.31
2023-04-01T18:23:05.506Z,9.17
2023-04-01T18:27:10.500Z,9.34
2023-04-01T18:31:35.619Z,9.32
2023-04-01T18:36:08.862Z,9.19
2023-04-01T18:40:37.955Z,9.09
2023-04-01T18:44:48.610Z,9.03
2023-04-01T18:48:59.464Z,9.04
2023-04-01T18:53:17.330Z,9.08
2023-04-01T18:57:21.183Z,8.84
2023-04-01T19:02:20.379Z,8.91
2023-04-01T19:06:26.100Z,8.80
2023-04-01T19:10:34.973Z,8.85
2023-04-01T19:15:08.366Z,8.85
2023-04-01T19:19:20.668Z,8.71
2023-04-01T19:23:43.746Z,8.80
2023-04-01T19:27:54.771Z,8.73
2023-04-01T19:32:14.534Z,8.70
2023-04-01T19:36:38.354Z,8.72
2023-04-01T19:40:54.403Z,8.76
2023-04-01T19:45:12.545Z,8.59
2023-04-01T19:49:17.736Z,8.43
2023-04-01T19:53:38.186Z,8.44
2023-04-01T19:57:52.356Z,8.58
2023-04-01T20:02:21.876Z,8.62
2023-04-01T20:06:47.300Z,8.67
2023-04-01T20:11:01.276Z,8.65
2023-04-01T20:15:21.394Z,8.22
2023-04-01T20:19:36.189Z,8.46
2023-04-01T20:23:43.865Z,8.43
2023-04-01T20:28:21.868Z,8.26
2023-04-01T20:33:00.949Z,8.35
2023-04-01T20:37:21.808Z,8.29
2023-04-01T20:41:23.797Z,8.45
2023-04-01T20:45:54.478Z,8.23
2023-04-01T20:50:34.930Z,8.25
2023-04-01T20:54:49.106Z,8.21
2023-04-01T20:58:58.745Z,8.20
2023-04-01T21:03:09.478Z,8.22
2023-04-01T21:07:33.319Z,8.29
2023-04-01T21:11:44.247Z,8.24
2023-04-01T21:16:05.279Z,8.26
2023-04-01T21:20:29.272Z,8.24
2023-04-01T21:25:06.798Z,8.11
2023-04-01T21:29:46.448Z,7.97
2023-04-01T21:34:32.491Z,8.14
2023-04-01T21:38:55.737Z,7.94
2023-04-01T21:43:01.012Z,7.95
2023-04-01T21:47:33.487Z,7.91
2023-04-01T21:52:18.830Z,7.84
2023-04-01T21:56:42.064Z,7.98
2023-04-01T22:01:08.617Z,8.15
2023-04-01T22:05:34.729Z,8.16
2023-04-01T22:09:52.944Z,8.19
2023-04-01T22:14:03.108Z,7.89
2023-04-01T22:18:23.744Z,7.88
2023-04-01T22:22:34.344Z,7.91
2023-04-01T22:27:02.461Z,7.75
2023-04-01T22:31:08.979Z,7.91
2023-04-01T22:35:14.374Z,7.72
2023-04-01T22:39:25.069Z,7.68
2023-04-01T22:43:44.254Z,7.58
2023-04-01T22:48:16.781Z,7.56
2023-04-01T22:52:30.243Z,7.37
2023-04-01T22:56:43.703Z,7.59
2023-04-01T23:00:55.859Z,7.60
2023-04-01T23:05:02.278Z,7.36
2023-04-01T23:09:28.584Z,7.50
2023-04-01T23:13:46.651Z,7.39
2023-04-01T23:17:54.858Z,7.31
2023-04-01T23:22:35.385Z,7.21
2023-04-01T23:26:48.627Z,7.10
2023-04-01T23:30:51.791Z,7.26
2023-04-01T23:34:59.544Z,7.27
2023-04-01T23:39:06.396Z,7.13
2023-04-01T23:43:27.025Z,7.29
2023-04-01T23:47:33.637Z,7.18
2023-04-01T23:51:50.040Z,7.32
2023-04-01T23:55:53.055Z,7.17
